createdAt,value
2022-09-06T00:00:11.528Z,1.80
2022-09-06T00:02:38.126Z,1.80
2022-09-06T00:05:05.227Z,1.80
2022-09-06T00:07:32.346Z,1.90
2022-09-06T00:09:59.203Z,1.80
2022-09-06T00:12:28.112Z,1.90
2022-09-06T00:14:55.171Z,2.03
2022-09-06T00:17:21.655Z,1.85
2022-09-06T00:19:49.575Z,2.00
2022-09-06T00:22:16.344Z,1.90
2022-09-06T00:24:45.923Z,1.83
2022-09-06T00:27:12.367Z,2.77
2022-09-06T00:29:38.887Z,2.20
2022-09-06T00:32:05.878Z,2.50
2022-09-06T00:34:32.367Z,2.20
2022-09-06T00:36:58.891Z,2.25
2022-09-06T00:39:25.922Z,2.77
2022-09-06T00:41:52.999Z,2.40
2022-09-06T00:44:19.614Z,2.30
2022-09-06T00:46:48.370Z,3.17
2022-09-06T00:49:39.898Z,2.30
2022-09-06T00:52:11.085Z,2.30
2022-09-06T00:54:39.044Z,2.47
2022-09-06T00:57:06.181Z,2.63
2022-09-06T00:59:35.712Z,2.70
2022-09-06T01:02:03.167Z,2.75
2022-09-06T01:04:29.783Z,2.33
2022-09-06T01:07:11.202Z,2.70
2022-09-06T01:09:58.717Z,3.08
2022-09-06T01:12:36.402Z,2.80
2022-09-06T01:15:20.550Z,3.10
2022-09-06T01:17:52.700Z,3.23
2022-09-06T01:20:39.007Z,2.80
2022-09-06T01:23:30.240Z,2.78
2022-09-06T01:25:57.002Z,2.85
2022-09-06T01:28:44.283Z,3.00
2022-09-06T01:31:27.755Z,3.00
2022-09-06T01:34:12.552Z,3.20
2022-09-06T01:37:13.684Z,2.95
2022-09-06T01:39:42.054Z,3.30
2022-09-06T01:42:20.602Z,3.38
2022-09-06T01:44:56.201Z,3.57
2022-09-06T01:47:35.464Z,3.50
2022-09-06T01:50:21.859Z,3.50
2022-09-06T01:53:03.090Z,3.60
2022-09-06T01:55:40.451Z,3.50
2022-09-06T01:58:31.305Z,3.80
2022-09-06T02:01:34.727Z,3.40
2022-09-06T02:04:13.400Z,3.65
2022-09-06T02:06:49.102Z,3.70
2022-09-06T02:09:21.196Z,3.75
2022-09-06T02:11:57.611Z,3.60
2022-09-06T02:14:44.899Z,3.63
2022-09-06T02:17:15.976Z,3.63
2022-09-06T02:19:57.042Z,4.05
2022-09-06T02:22:31.759Z,4.25
2022-09-06T02:25:00.232Z,4.10
2022-09-06T02:27:28.307Z,4.30
2022-09-06T02:29:56.366Z,4.78
2022-09-06T02:32:26.474Z,4.55
2022-09-06T02:34:55.606Z,4.72
2022-09-06T02:37:26.008Z,4.63
2022-09-06T02:39:55.317Z,5.28
2022-09-06T02:42:23.293Z,5.13
2022-09-06T02:44:49.933Z,4.30
2022-09-06T02:47:16.907Z,4.53
2022-09-06T02:49:43.402Z,4.90
2022-09-06T02:52:10.348Z,4.75
2022-09-06T02:54:36.886Z,5.35
2022-09-06T02:57:03.859Z,5.40
2022-09-06T02:59:30.331Z,5.00
2022-09-06T03:01:57.166Z,5.13
2022-09-06T03:04:23.872Z,5.07
2022-09-06T03:06:50.840Z,5.30
2022-09-06T03:09:17.324Z,4.97
2022-09-06T03:11:43.901Z,5.38
2022-09-06T03:14:11.188Z,4.47
2022-09-06T03:16:41.200Z,5.07
2022-09-06T03:19:07.931Z,5.53
2022-09-06T03:21:34.458Z,5.68
2022-09-06T03:24:00.909Z,5.05
2022-09-06T03:26:28.116Z,5.27
2022-09-06T03:28:54.571Z,4.72
2022-09-06T03:31:21.116Z,4.95
2022-09-06T03:33:47.852Z,5.20
2022-09-06T03:36:14.317Z,5.30
2022-09-06T03:38:40.918Z,5.33
2022-09-06T03:41:07.423Z,4.90
2022-09-06T03:43:34.059Z,5.35
2022-09-06T03:46:00.653Z,4.97
2022-09-06T03:48:29.769Z,5.30
2022-09-06T03:50:58.060Z,4.70
2022-09-06T03:53:25.930Z,5.10
2022-09-06T03:55:54.480Z,5.30
2022-09-06T03:58:23.040Z,4.85
2022-09-06T04:00:49.823Z,5.50
2022-09-06T04:03:19.308Z,5.27
2022-09-06T04:05:46.791Z,5.00
2022-09-06T04:08:13.710Z,5.28
2022-09-06T04:10:40.232Z,5.90
2022-09-06T04:13:06.975Z,5.80
2022-09-06T04:15:33.505Z,5.23
2022-09-06T04:18:00.046Z,5.28
2022-09-06T04:20:26.694Z,5.47
2022-09-06T04:22:53.570Z,4.93
2022-09-06T04:25:19.952Z,6.40
2022-09-06T04:27:46.359Z,5.57
2022-09-06T04:30:12.785Z,5.40
2022-09-06T04:32:39.219Z,5.40
2022-09-06T04:35:06.270Z,5.50
2022-09-06T04:37:32.994Z,5.47
2022-09-06T04:39:59.595Z,5.30
2022-09-06T04:42:26.249Z,4.75
2022-09-06T04:44:52.733Z,5.40
2022-09-06T04:47:32.133Z,4.40
2022-09-06T04:49:58.501Z,4.53
2022-09-06T04:52:29.951Z,4.17
2022-09-06T04:54:56.686Z,4.18
2022-09-06T04:57:23.303Z,3.92
2022-09-06T04:59:49.668Z,3.55
2022-09-06T05:02:16.072Z,3.63
2022-09-06T05:04:45.775Z,3.53
2022-09-06T05:07:13.136Z,3.50
2022-09-06T05:09:39.550Z,3.70
2022-09-06T05:12:06.285Z,3.78
2022-09-06T05:14:36.569Z,3.45
2022-09-06T05:17:03.361Z,3.67
2022-09-06T05:19:30.024Z,3.40
2022-09-06T05:21:56.437Z,3.15
2022-09-06T05:24:22.867Z,4.07
2022-09-06T05:26:49.273Z,3.05
2022-09-06T05:29:16.191Z,2.90
2022-09-06T05:31:42.667Z,3.13
2022-09-06T05:34:10.902Z,3.47
2022-09-06T05:36:39.272Z,3.28
2022-09-06T05:39:06.162Z,3.38
2022-09-06T05:41:33.808Z,3.30
2022-09-06T05:44:00.178Z,3.78
2022-09-06T05:46:26.643Z,3.65
2022-09-06T05:49:00.990Z,3.50
2022-09-06T05:51:27.409Z,3.30
2022-09-06T05:53:53.936Z,3.50
2022-09-06T05:56:20.669Z,3.92
2022-09-06T05:58:47.080Z,3.90
2022-09-06T06:01:21.504Z,3.95
2022-09-06T06:03:58.935Z,3.90
2022-09-06T06:06:27.959Z,3.80
2022-09-06T06:08:54.901Z,4.35
2022-09-06T06:11:21.363Z,4.03
2022-09-06T06:13:47.817Z,4.20
2022-09-06T06:16:17.369Z,3.67
2022-09-06T06:18:51.737Z,4.03
2022-09-06T06:21:27.681Z,3.90
2022-09-06T06:23:58.213Z,4.50
2022-09-06T06:26:25.732Z,4.53
2022-09-06T06:28:53.246Z,4.65
2022-09-06T06:31:22.295Z,4.40
2022-09-06T06:33:49.114Z,4.70
2022-09-06T06:36:15.455Z,4.55
2022-09-06T06:38:43.715Z,4.90
2022-09-06T06:41:12.458Z,5.47
2022-09-06T06:43:39.044Z,5.23
2022-09-06T06:46:16.040Z,5.18
2022-09-06T06:48:44.153Z,5.47
2022-09-06T06:51:12.871Z,6.07
2022-09-06T06:53:39.383Z,5.95
2022-09-06T06:56:21.932Z,5.57
2022-09-06T06:58:50.567Z,5.40
2022-09-06T07:01:19.751Z,5.20
2022-09-06T07:03:49.666Z,5.68
2022-09-06T07:06:17.156Z,4.82
2022-09-06T07:08:44.502Z,5.60
2022-09-06T07:11:12.982Z,5.70
2022-09-06T07:13:39.624Z,6.05
2022-09-06T07:16:09.317Z,5.85
2022-09-06T07:18:37.765Z,5.80
2022-09-06T07:24:07.026Z,5.63
2022-09-06T07:26:35.049Z,5.82
2022-09-06T07:29:04.532Z,4.75
2022-09-06T07:34:19.236Z,5.80
2022-09-06T07:36:45.705Z,5.60
2022-09-06T07:39:12.254Z,5.40
2022-09-06T07:41:39.067Z,6.00
2022-09-06T07:44:05.545Z,6.13
2022-09-06T07:46:31.985Z,5.80
2022-09-06T07:48:58.708Z,6.25
2022-09-06T07:51:25.081Z,6.55
2022-09-06T07:54:12.823Z,6.85
2022-09-06T07:56:41.751Z,6.65
2022-09-06T07:59:08.177Z,6.93
2022-09-06T08:01:36.404Z,6.72
2022-09-06T08:04:11.088Z,6.90
2022-09-06T08:09:26.358Z,6.20
2022-09-06T08:11:52.961Z,6.07
2022-09-06T08:14:19.899Z,6.28
2022-09-06T08:16:46.432Z,6.57
2022-09-06T08:19:12.816Z,6.13
2022-09-06T08:21:39.516Z,6.10
2022-09-06T08:24:08.027Z,6.10
2022-09-06T08:26:36.723Z,6.07
2022-09-06T08:29:06.807Z,5.60
2022-09-06T08:31:35.705Z,5.35
2022-09-06T08:34:02.638Z,5.97
2022-09-06T08:36:30.587Z,5.50
2022-09-06T08:39:01.618Z,5.65
2022-09-06T08:41:33.016Z,5.38
2022-09-06T08:47:04.486Z,5.00
2022-09-06T08:49:34.034Z,4.43
2022-09-06T08:52:14.918Z,4.90
2022-09-06T08:54:58.689Z,5.65
2022-09-06T08:57:51.744Z,4.68
2022-09-06T09:00:20.284Z,4.95
2022-09-06T09:02:52.674Z,5.40
2022-09-06T09:05:24.535Z,5.65
2022-09-06T09:08:12.413Z,6.10
2022-09-06T09:10:42.503Z,5.45
2022-09-06T09:13:19.637Z,5.20
2022-09-06T09:15:46.180Z,5.10
2022-09-06T09:18:12.744Z,4.63
2022-09-06T09:20:39.264Z,5.07
2022-09-06T09:23:05.841Z,5.30
2022-09-06T09:25:34.200Z,5.72
2022-09-06T09:28:00.681Z,4.90
2022-09-06T09:33:24.411Z,4.50
2022-09-06T09:35:51.240Z,4.50
2022-09-06T09:38:25.813Z,4.95
2022-09-06T09:41:01.730Z,4.17
2022-09-06T09:43:33.021Z,4.10
2022-09-06T09:46:15.234Z,3.90
2022-09-06T09:49:07.900Z,4.40
2022-09-06T09:51:40.875Z,4.13
2022-09-06T09:54:29.280Z,3.37
2022-09-06T09:56:57.253Z,3.55
2022-09-06T09:59:26.462Z,3.70
2022-09-06T10:01:56.402Z,4.38
2022-09-06T10:07:18.203Z,4.90
2022-09-06T10:10:07.354Z,4.50
2022-09-06T10:12:38.700Z,5.20
2022-09-06T10:15:07.496Z,6.20
2022-09-06T10:17:51.775Z,5.22
2022-09-06T10:20:18.969Z,4.73
2022-09-06T10:22:54.335Z,4.97
2022-09-06T10:25:39.678Z,4.47
2022-09-06T10:28:28.172Z,5.20
2022-09-06T10:31:19.048Z,4.25
2022-09-06T10:34:01.966Z,4.83
2022-09-06T10:36:34.334Z,4.63
2022-09-06T10:39:34.946Z,4.45
2022-09-06T10:42:06.644Z,3.50
2022-09-06T10:45:06.803Z,3.90
2022-09-06T10:47:47.402Z,2.87
2022-09-06T10:50:15.320Z,3.22
2022-09-06T10:52:45.349Z,2.17
2022-09-06T10:55:17.083Z,2.75
2022-09-06T11:00:46.644Z,1.97
2022-09-06T11:03:57.062Z,2.28
2022-09-06T11:06:32.641Z,1.80
2022-09-06T11:09:16.930Z,1.70
2022-09-06T11:12:02.285Z,1.50
2022-09-06T11:14:30.134Z,1.73
2022-09-06T11:17:19.698Z,1.98
2022-09-06T11:19:58.047Z,1.60
2022-09-06T11:22:24.417Z,1.70
2022-09-06T11:25:18.015Z,1.70
2022-09-06T11:27:52.324Z,2.00
2022-09-06T11:30:22.775Z,1.42
2022-09-06T11:32:50.621Z,1.42
2022-09-06T11:35:37.877Z,1.70
2022-09-06T11:38:08.651Z,1.70
2022-09-06T11:40:43.028Z,1.77
2022-09-06T11:43:12.874Z,1.65
2022-09-06T11:45:51.124Z,1.92
2022-09-06T11:48:23.700Z,2.03
2022-09-06T11:50:59.421Z,1.77
2022-09-06T11:53:27.505Z,2.37
2022-09-06T11:56:00.141Z,2.17
2022-09-06T11:58:51.556Z,1.55
2022-09-06T12:01:18.827Z,2.17
2022-09-06T12:04:04.970Z,2.97
2022-09-06T12:07:00.091Z,2.80
2022-09-06T12:09:45.533Z,3.55
2022-09-06T12:12:16.948Z,2.92
2022-09-06T12:14:46.765Z,2.70
2022-09-06T12:17:13.117Z,3.05
2022-09-06T12:20:09.307Z,2.93
2022-09-06T12:22:42.102Z,2.95
2022-09-06T12:25:41.988Z,2.80
2022-09-06T12:28:37.793Z,3.67
2022-09-06T12:31:28.619Z,3.35
2022-09-06T12:34:00.870Z,2.90
2022-09-06T12:36:31.685Z,3.00
2022-09-06T12:39:09.333Z,3.25
2022-09-06T12:41:45.072Z,3.22
2022-09-06T12:44:14.831Z,3.53
2022-09-06T12:46:50.984Z,4.00
2022-09-06T12:49:23.361Z,4.63
2022-09-06T12:52:14.171Z,4.70
2022-09-06T12:54:50.016Z,5.03
2022-09-06T12:57:24.724Z,5.22
2022-09-06T12:59:56.108Z,5.20
2022-09-06T13:02:37.408Z,5.28
2022-09-06T13:05:11.680Z,5.38
2022-09-06T13:07:45.517Z,5.10
2022-09-06T13:10:16.098Z,4.70
2022-09-06T13:12:45.698Z,4.83
2022-09-06T13:15:26.637Z,5.05
2022-09-06T13:17:55.598Z,5.22
2022-09-06T13:20:26.304Z,6.15
2022-09-06T13:22:54.600Z,5.82
2022-09-06T13:25:21.444Z,5.90
2022-09-06T13:27:56.513Z,6.28
2022-09-06T13:30:33.750Z,5.05
2022-09-06T13:33:01.100Z,4.78
2022-09-06T13:35:34.430Z,5.38
2022-09-06T13:38:21.353Z,5.57
2022-09-06T13:41:11.650Z,6.05
2022-09-06T13:43:47.574Z,5.13
2022-09-06T13:46:14.062Z,4.57
2022-09-06T13:48:41.461Z,5.55
2022-09-06T13:51:09.660Z,5.67
2022-09-06T13:53:36.144Z,5.20
2022-09-06T13:56:03.724Z,5.18
2022-09-06T13:58:30.318Z,5.18
2022-09-06T14:00:56.897Z,4.97
2022-09-06T14:03:32.489Z,5.30
2022-09-06T14:06:02.529Z,4.70
2022-09-06T14:08:43.894Z,4.60
2022-09-06T14:11:16.873Z,4.22
2022-09-06T14:13:43.393Z,4.00
2022-09-06T14:16:12.976Z,3.53
2022-09-06T14:18:40.364Z,3.38
2022-09-06T14:21:07.297Z,2.65
2022-09-06T14:23:34.012Z,2.53
2022-09-06T14:26:02.871Z,2.42
2022-09-06T14:28:31.717Z,1.90
2022-09-06T14:31:11.556Z,2.10
2022-09-06T14:33:38.057Z,1.90
2022-09-06T14:36:09.830Z,2.20
2022-09-06T14:38:41.017Z,2.67
2022-09-06T14:41:09.099Z,2.60
2022-09-06T14:43:36.752Z,2.70
2022-09-06T14:46:09.941Z,2.40
2022-09-06T14:48:41.513Z,2.97
2022-09-06T14:51:13.997Z,3.08
2022-09-06T14:53:42.167Z,3.03
2022-09-06T14:56:12.999Z,3.00
2022-09-06T14:58:46.891Z,2.65
2022-09-06T15:01:16.993Z,2.88
2022-09-06T15:03:48.767Z,2.80
2022-09-06T15:06:16.425Z,2.53
2022-09-06T15:08:45.634Z,2.60
2022-09-06T15:11:12.502Z,3.63
2022-09-06T15:13:40.411Z,3.08
2022-09-06T15:16:08.827Z,2.85
2022-09-06T15:18:36.053Z,3.20
2022-09-06T15:21:13.606Z,2.90
2022-09-06T15:23:40.553Z,3.15
2022-09-06T15:26:08.433Z,2.85
2022-09-06T15:28:35.966Z,3.90
2022-09-06T15:31:02.695Z,3.13
2022-09-06T15:33:30.764Z,3.28
2022-09-06T15:35:58.208Z,3.67
2022-09-06T15:38:24.626Z,4.32
2022-09-06T15:40:51.028Z,4.22
2022-09-06T15:43:17.579Z,5.10
2022-09-06T15:45:49.604Z,4.40
2022-09-06T15:48:17.323Z,9.23
2022-09-06T15:50:51.701Z,4.63
2022-09-06T15:53:19.079Z,3.60
2022-09-06T15:55:58.020Z,3.77
2022-09-06T15:58:28.027Z,6.07
2022-09-06T16:01:02.320Z,3.95
2022-09-06T16:03:29.014Z,3.15
2022-09-06T16:08:51.294Z,2.33
2022-09-06T16:11:18.854Z,2.78
2022-09-06T16:13:46.045Z,2.80
2022-09-06T16:16:14.563Z,2.55
2022-09-06T16:18:43.278Z,3.63
2022-09-06T16:21:13.702Z,3.77
2022-09-06T16:23:41.460Z,2.70
2022-09-06T16:26:09.635Z,2.33
2022-09-06T16:28:38.310Z,2.35
2022-09-06T16:31:07.962Z,2.40
2022-09-06T16:33:36.035Z,2.40
2022-09-06T16:36:04.536Z,2.60
2022-09-06T16:38:32.632Z,2.40
2022-09-06T16:41:00.991Z,2.90
2022-09-06T16:43:28.225Z,2.10
2022-09-06T16:45:58.986Z,2.50
2022-09-06T16:48:26.895Z,2.42
2022-09-06T16:50:53.631Z,2.60
2022-09-06T16:53:22.174Z,2.60
2022-09-06T16:55:48.731Z,2.50
2022-09-06T16:58:19.745Z,2.50
2022-09-06T17:00:46.182Z,2.70
2022-09-06T17:03:14.024Z,2.83
2022-09-06T17:05:41.077Z,2.60
2022-09-06T17:08:07.759Z,2.92
2022-09-06T17:10:38.087Z,2.70
2022-09-06T17:13:04.481Z,3.40
2022-09-06T17:15:50.853Z,3.22
2022-09-06T17:18:17.348Z,2.63
2022-09-06T17:20:55.115Z,2.92
2022-09-06T17:23:21.525Z,2.83
2022-09-06T17:25:48.453Z,3.08
2022-09-06T17:28:14.799Z,3.47
2022-09-06T17:30:41.572Z,2.90
2022-09-06T17:33:07.972Z,2.80
2022-09-06T17:35:34.644Z,3.20
2022-09-06T17:38:02.423Z,2.90
2022-09-06T17:40:30.783Z,3.15
2022-09-06T17:42:57.856Z,3.45
2022-09-06T17:45:24.342Z,3.30
2022-09-06T17:47:50.932Z,3.90
2022-09-06T17:50:17.582Z,3.05
2022-09-06T17:52:44.016Z,2.90
2022-09-06T17:55:10.871Z,2.72
2022-09-06T17:57:37.254Z,2.95
2022-09-06T18:00:04.364Z,3.10
2022-09-06T18:02:31.118Z,2.88
2022-09-06T18:04:57.629Z,2.83
2022-09-06T18:07:24.141Z,2.90
2022-09-06T18:09:50.492Z,3.28
2022-09-06T18:12:17.439Z,2.87
2022-09-06T18:14:43.891Z,2.60
2022-09-06T18:17:10.675Z,2.40
2022-09-06T18:19:38.149Z,2.42
2022-09-06T18:22:04.714Z,2.50
2022-09-06T18:24:31.108Z,2.37
2022-09-06T18:26:57.489Z,2.10
2022-09-06T18:29:23.882Z,1.80
2022-09-06T18:31:53.469Z,2.13
2022-09-06T18:34:20.064Z,2.25
2022-09-06T18:36:46.453Z,2.10
2022-09-06T18:39:13.269Z,2.00
2022-09-06T18:41:58.416Z,1.80
2022-09-06T18:44:26.697Z,3.40
2022-09-06T18:46:55.746Z,2.28
2022-09-06T18:49:22.384Z,2.40
2022-09-06T18:51:49.463Z,2.58
2022-09-06T18:54:16.607Z,3.28
2022-09-06T18:56:46.265Z,3.55
2022-09-06T18:59:14.131Z,3.45
2022-09-06T19:01:40.712Z,3.83
2022-09-06T19:04:07.481Z,3.78
2022-09-06T19:06:35.605Z,3.80
2022-09-06T19:09:08.647Z,3.97
2022-09-06T19:11:35.321Z,4.03
2022-09-06T19:14:02.305Z,4.33
2022-09-06T19:16:29.695Z,4.05
2022-09-06T19:19:00.551Z,4.20
2022-09-06T19:21:27.672Z,4.20
2022-09-06T19:23:57.328Z,4.50
2022-09-06T19:26:24.840Z,4.13
2022-09-06T19:28:54.671Z,4.20
2022-09-06T19:31:22.511Z,4.68
2022-09-06T19:33:50.421Z,4.35
2022-09-06T19:36:18.996Z,4.13
2022-09-06T19:41:37.822Z,4.22
2022-09-06T19:44:08.504Z,4.78
2022-09-06T19:46:36.324Z,4.10
2022-09-06T19:49:03.349Z,4.10
2022-09-06T19:51:30.106Z,4.30
2022-09-06T19:54:00.355Z,4.22
2022-09-06T19:56:33.276Z,4.47
2022-09-06T19:59:04.666Z,4.57
2022-09-06T20:01:33.165Z,4.63
2022-09-06T20:04:02.417Z,4.00
2022-09-06T20:06:30.084Z,4.65
2022-09-06T20:08:57.959Z,4.50
2022-09-06T20:11:26.909Z,4.97
2022-09-06T20:13:53.645Z,4.57
2022-09-06T20:16:21.112Z,4.40
2022-09-06T20:18:48.915Z,4.20
2022-09-06T20:21:18.174Z,4.40
2022-09-06T20:23:50.031Z,4.45
2022-09-06T20:26:17.945Z,4.80
2022-09-06T20:28:44.563Z,4.80
2022-09-06T20:31:16.509Z,5.03
2022-09-06T20:33:48.763Z,5.00
2022-09-06T20:36:16.448Z,4.80
2022-09-06T20:38:44.409Z,4.32
2022-09-06T20:41:19.861Z,4.30
2022-09-06T20:43:54.590Z,4.68
2022-09-06T20:46:24.267Z,4.30
2022-09-06T20:48:51.777Z,4.10
2022-09-06T20:51:20.645Z,4.13
2022-09-06T20:53:50.899Z,4.57
2022-09-06T20:56:19.507Z,3.92
2022-09-06T20:58:50.951Z,4.32
2022-09-06T21:01:22.442Z,5.18
2022-09-06T21:03:52.315Z,5.07
2022-09-06T21:06:20.375Z,5.57
2022-09-06T21:08:47.558Z,5.28
2022-09-06T21:11:14.172Z,5.40
2022-09-06T21:13:40.694Z,5.57
2022-09-06T21:16:07.548Z,6.50
2022-09-06T21:18:35.070Z,6.17
2022-09-06T21:21:06.895Z,6.97
2022-09-06T21:23:35.977Z,6.68
2022-09-06T21:26:05.148Z,6.53
2022-09-06T21:28:36.956Z,6.60
2022-09-06T21:31:11.918Z,6.90
2022-09-06T21:33:47.466Z,6.35
2022-09-06T21:36:18.558Z,6.53
2022-09-06T21:38:46.987Z,5.90
2022-09-06T21:41:17.932Z,6.05
2022-09-06T21:43:45.099Z,5.80
2022-09-06T21:46:17.911Z,6.03
2022-09-06T21:48:47.418Z,6.13
2022-09-06T21:51:16.911Z,5.80
2022-09-06T21:53:45.399Z,5.60
2022-09-06T21:56:12.832Z,5.90
2022-09-06T21:58:39.968Z,6.10
2022-09-06T22:01:07.943Z,6.20
2022-09-06T22:03:39.014Z,5.95
2022-09-06T22:06:10.237Z,5.50
2022-09-06T22:08:37.139Z,5.70
2022-09-06T22:11:22.448Z,5.40
2022-09-06T22:13:50.090Z,5.57
2022-09-06T22:16:19.220Z,6.13
2022-09-06T22:18:46.747Z,6.18
2022-09-06T22:21:20.175Z,5.70
2022-09-06T22:23:57.819Z,7.30
2022-09-06T22:26:26.723Z,6.75
2022-09-06T22:28:55.433Z,7.93
2022-09-06T22:31:23.227Z,7.45
2022-09-06T22:33:50.009Z,6.60
2022-09-06T22:36:17.239Z,6.82
2022-09-06T22:38:43.715Z,6.13
2022-09-06T22:41:10.335Z,5.05
2022-09-06T22:43:37.144Z,6.72
2022-09-06T22:46:08.851Z,8.00
2022-09-06T22:48:36.202Z,6.93
2022-09-06T22:51:04.018Z,5.97
2022-09-06T22:53:31.514Z,5.30
2022-09-06T22:55:58.172Z,4.00
2022-09-06T22:58:26.806Z,3.70
2022-09-06T23:00:54.619Z,3.10
2022-09-06T23:03:22.867Z,2.72
2022-09-06T23:05:49.543Z,3.30
2022-09-06T23:08:16.176Z,2.90
2022-09-06T23:10:44.192Z,2.90
2022-09-06T23:13:11.242Z,2.50
2022-09-06T23:15:40.602Z,2.40
2022-09-06T23:18:07.919Z,3.13
2022-09-06T23:20:37.142Z,2.95
2022-09-06T23:23:04.998Z,2.90
2022-09-06T23:25:31.677Z,2.83
2022-09-06T23:28:00.150Z,2.80
2022-09-06T23:30:26.669Z,2.97
2022-09-06T23:32:53.285Z,2.85
2022-09-06T23:35:19.841Z,2.57
2022-09-06T23:37:50.024Z,2.30
2022-09-06T23:40:17.290Z,1.83
2022-09-06T23:42:43.782Z,2.13
2022-09-06T23:45:10.455Z,2.40
2022-09-06T23:47:36.932Z,2.30
2022-09-06T23:50:04.456Z,2.08
2022-09-06T23:52:30.990Z,2.00
2022-09-06T23:54:57.768Z,2.20
2022-09-06T23:57:24.270Z,1.95
2022-09-06T23:59:50.729Z,2.23
